sensor_id;sensor_type;location;lat;lon;timestamp;P1;durP1;ratioP1;P2;durP2;ratioP2
52922;SDS011;38796;42.702;23.306;2023-04-25T00:01:52;0.20;;;0.20;;
52922;SDS011;38796;42.702;23.306;2023-04-25T00:03:50;0.20;;;0.10;;
52922;SDS011;38796;42.702;23.306;2023-04-25T00:05:49;0.10;;;0.05;;
52922;SDS011;38796;42.702;23.306;2023-04-25T00:07:48;0.60;;;0.20;;
52922;SDS011;38796;42.702;23.306;2023-04-25T00:09:46;0.40;;;0.20;;
52922;SDS011;38796;42.702;23.306;2023-04-25T00:11:44;0.80;;;0.32;;
52922;SDS011;38796;42.702;23.306;2023-04-25T00:13:42;0.20;;;0.20;;
52922;SDS011;38796;42.702;23.306;2023-04-25T00:15:41;0.50;;;0.30;;
52922;SDS011;38796;42.702;23.306;2023-04-25T00:17:39;0.75;;;0.45;;
52922;SDS011;38796;42.702;23.306;2023-04-25T00:19:37;0.43;;;0.22;;
52922;SDS011;38796;42.702;23.306;2023-04-25T00:21:35;1.75;;;0.10;;
52922;SDS011;38796;42.702;23.306;2023-04-25T00:23:34;0.10;;;0.10;;
52922;SDS011;38796;42.702;23.306;2023-04-25T00:25:33;0.68;;;0.32;;
52922;SDS011;38796;42.702;23.306;2023-04-25T00:27:31;0.30;;;0.20;;
52922;SDS011;38796;42.702;23.306;2023-04-25T00:29:29;0.82;;;0.13;;
52922;SDS011;38796;42.702;23.306;2023-04-25T00:31:28;0.40;;;0.40;;
52922;SDS011;38796;42.702;23.306;2023-04-25T00:33:26;0.20;;;0.20;;
52922;SDS011;38796;42.702;23.306;2023-04-25T00:35:24;0.30;;;0.10;;
52922;SDS011;38796;42.702;23.306;2023-04-25T00:37:22;2.15;;;0.30;;
52922;SDS011;38796;42.702;23.306;2023-04-25T00:39:20;0.35;;;0.30;;
52922;SDS011;38796;42.702;23.306;2023-04-25T00:41:19;0.40;;;0.40;;
52922;SDS011;38796;42.702;23.306;2023-04-25T00:43:17;0.45;;;0.38;;
52922;SDS011;38796;42.702;23.306;2023-04-25T00:45:15;0.20;;;0.10;;
52922;SDS011;38796;42.702;23.306;2023-04-25T00:47:14;0.75;;;0.50;;
52922;SDS011;38796;42.702;23.306;2023-04-25T00:49:12;1.00;;;0.47;;
52922;SDS011;38796;42.702;23.306;2023-04-25T00:51:13;1.58;;;0.65;;
52922;SDS011;38796;42.702;23.306;2023-04-25T00:53:11;1.00;;;0.38;;
52922;SDS011;38796;42.702;23.306;2023-04-25T00:55:09;0.50;;;0.40;;
52922;SDS011;38796;42.702;23.306;2023-04-25T00:57:08;1.23;;;0.63;;
52922;SDS011;38796;42.702;23.306;2023-04-25T00:59:07;0.20;;;0.10;;
52922;SDS011;38796;42.702;23.306;2023-04-25T01:01:06;0.30;;;0.20;;
52922;SDS011;38796;42.702;23.306;2023-04-25T01:03:06;1.70;;;0.82;;
52922;SDS011;38796;42.702;23.306;2023-04-25T01:05:04;5.22;;;0.82;;
52922;SDS011;38796;42.702;23.306;2023-04-25T01:07:04;1.17;;;0.30;;
52922;SDS011;38796;42.702;23.306;2023-04-25T01:09:02;0.30;;;0.30;;
52922;SDS011;38796;42.702;23.306;2023-04-25T01:11:00;0.65;;;0.50;;
52922;SDS011;38796;42.702;23.306;2023-04-25T01:12:58;2.92;;;1.02;;
52922;SDS011;38796;42.702;23.306;2023-04-25T01:14:56;1.42;;;0.85;;
52922;SDS011;38796;42.702;23.306;2023-04-25T01:16:54;1.42;;;0.40;;
52922;SDS011;38796;42.702;23.306;2023-04-25T01:18:53;1.52;;;0.73;;
52922;SDS011;38796;42.702;23.306;2023-04-25T01:20:52;5.60;;;0.98;;
52922;SDS011;38796;42.702;23.306;2023-04-25T01:22:52;0.80;;;0.70;;
52922;SDS011;38796;42.702;23.306;2023-04-25T01:24:50;0.30;;;0.22;;
52922;SDS011;38796;42.702;23.306;2023-04-25T01:26:48;1.50;;;0.82;;
52922;SDS011;38796;42.702;23.306;2023-04-25T01:28:52;0.90;;;0.40;;
52922;SDS011;38796;42.702;23.306;2023-04-25T01:30:50;1.02;;;0.50;;
52922;SDS011;38796;42.702;23.306;2023-04-25T01:32:49;0.20;;;0.20;;
52922;SDS011;38796;42.702;23.306;2023-04-25T01:34:47;2.58;;;0.52;;
52922;SDS011;38796;42.702;23.306;2023-04-25T01:36:46;0.38;;;0.38;;
52922;SDS011;38796;42.702;23.306;2023-04-25T01:38:46;0.77;;;0.57;;
52922;SDS011;38796;42.702;23.306;2023-04-25T01:40:44;0.80;;;0.40;;
52922;SDS011;38796;42.702;23.306;2023-04-25T01:42:43;0.32;;;0.32;;
52922;SDS011;38796;42.702;23.306;2023-04-25T01:44:41;0.68;;;0.45;;
52922;SDS011;38796;42.702;23.306;2023-04-25T01:46:39;1.08;;;0.85;;
52922;SDS011;38796;42.702;23.306;2023-04-25T01:48:37;1.25;;;0.60;;
52922;SDS011;38796;42.702;23.306;2023-04-25T01:50:37;0.50;;;0.22;;
52922;SDS011;38796;42.702;23.306;2023-04-25T01:52:36;0.70;;;0.22;;
52922;SDS011;38796;42.702;23.306;2023-04-25T01:54:36;1.00;;;0.52;;
52922;SDS011;38796;42.702;23.306;2023-04-25T01:56:36;1.02;;;0.32;;
52922;SDS011;38796;42.702;23.306;2023-04-25T01:58:36;0.45;;;0.45;;
52922;SDS011;38796;42.702;23.306;2023-04-25T02:00:52;0.40;;;0.38;;
52922;SDS011;38796;42.702;23.306;2023-04-25T02:02:52;3.75;;;0.60;;
52922;SDS011;38796;42.702;23.306;2023-04-25T02:04:56;1.08;;;0.40;;
52922;SDS011;38796;42.702;23.306;2023-04-25T02:06:56;2.10;;;0.57;;
52922;SDS011;38796;42.702;23.306;2023-04-25T02:09:01;5.78;;;1.00;;
52922;SDS011;38796;42.702;23.306;2023-04-25T02:11:00;0.47;;;0.47;;
52922;SDS011;38796;42.702;23.306;2023-04-25T02:13:06;0.32;;;0.32;;
52922;SDS011;38796;42.702;23.306;2023-04-25T02:15:25;0.43;;;0.15;;
52922;SDS011;38796;42.702;23.306;2023-04-25T02:17:27;0.40;;;0.35;;
52922;SDS011;38796;42.702;23.306;2023-04-25T02:19:25;0.25;;;0.20;;
52922;SDS011;38796;42.702;23.306;2023-04-25T02:21:22;1.13;;;0.68;;
52922;SDS011;38796;42.702;23.306;2023-04-25T02:23:20;4.95;;;0.73;;
52922;SDS011;38796;42.702;23.306;2023-04-25T02:25:19;0.30;;;0.15;;
52922;SDS011;38796;42.702;23.306;2023-04-25T02:27:18;1.60;;;0.98;;
52922;SDS011;38796;42.702;23.306;2023-04-25T02:29:16;0.50;;;0.20;;
52922;SDS011;38796;42.702;23.306;2023-04-25T02:31:14;3.10;;;0.77;;
52922;SDS011;38796;42.702;23.306;2023-04-25T02:33:12;0.65;;;0.17;;
52922;SDS011;38796;42.702;23.306;2023-04-25T02:35:13;1.65;;;0.55;;
52922;SDS011;38796;42.702;23.306;2023-04-25T02:37:11;0.20;;;0.10;;
52922;SDS011;38796;42.702;23.306;2023-04-25T02:39:09;0.90;;;0.73;;
52922;SDS011;38796;42.702;23.306;2023-04-25T02:41:08;0.40;;;0.40;;
52922;SDS011;38796;42.702;23.306;2023-04-25T02:43:07;0.30;;;0.20;;
52922;SDS011;38796;42.702;23.306;2023-04-25T02:45:05;0.70;;;0.65;;
52922;SDS011;38796;42.702;23.306;2023-04-25T02:47:03;0.30;;;0.20;;
52922;SDS011;38796;42.702;23.306;2023-04-25T02:49:01;0.95;;;0.50;;
52922;SDS011;38796;42.702;23.306;2023-04-25T02:50:59;0.63;;;0.63;;
52922;SDS011;38796;42.702;23.306;2023-04-25T02:52:58;0.73;;;0.57;;
52922;SDS011;38796;42.702;23.306;2023-04-25T02:55:03;1.05;;;0.40;;
52922;SDS011;38796;42.702;23.306;2023-04-25T02:57:02;1.83;;;1.73;;
52922;SDS011;38796;42.702;23.306;2023-04-25T02:59:06;1.33;;;0.90;;
52922;SDS011;38796;42.702;23.306;2023-04-25T03:01:04;1.30;;;1.20;;
52922;SDS011;38796;42.702;23.306;2023-04-25T03:03:02;1.25;;;1.17;;
52922;SDS011;38796;42.702;23.306;2023-04-25T03:05:01;0.47;;;0.47;;
52922;SDS011;38796;42.702;23.306;2023-04-25T03:07:00;0.35;;;0.35;;
52922;SDS011;38796;42.702;23.306;2023-04-25T03:08:59;2.78;;;0.63;;
52922;SDS011;38796;42.702;23.306;2023-04-25T03:10:57;0.55;;;0.50;;
52922;SDS011;38796;42.702;23.306;2023-04-25T03:12:55;1.55;;;0.75;;
52922;SDS011;38796;42.702;23.306;2023-04-25T03:14:55;0.50;;;0.50;;
52922;SDS011;38796;42.702;23.306;2023-04-25T03:16:53;0.93;;;0.47;;
52922;SDS011;38796;42.702;23.306;2023-04-25T03:18:52;0.93;;;0.60;;
52922;SDS011;38796;42.702;23.306;2023-04-25T03:20:50;0.63;;;0.63;;
52922;SDS011;38796;42.702;23.306;2023-04-25T03:22:48;1.25;;;1.13;;
52922;SDS011;38796;42.702;23.306;2023-04-25T03:24:47;0.65;;;0.32;;
52922;SDS011;38796;42.702;23.306;2023-04-25T03:26:45;1.20;;;1.00;;
52922;SDS011;38796;42.702;23.306;2023-04-25T03:28:43;7.45;;;0.85;;
52922;SDS011;38796;42.702;23.306;2023-04-25T03:30:43;0.65;;;0.50;;
52922;SDS011;38796;42.702;23.306;2023-04-25T03:32:41;1.20;;;0.57;;
52922;SDS011;38796;42.702;23.306;2023-04-25T03:34:39;1.40;;;0.52;;
52922;SDS011;38796;42.702;23.306;2023-04-25T03:36:37;0.85;;;0.65;;
52922;SDS011;38796;42.702;23.306;2023-04-25T03:38:38;4.78;;;0.85;;
52922;SDS011;38796;42.702;23.306;2023-04-25T03:40:38;1.52;;;1.00;;
52922;SDS011;38796;42.702;23.306;2023-04-25T03:42:49;0.80;;;0.47;;
52922;SDS011;38796;42.702;23.306;2023-04-25T03:44:47;1.48;;;0.75;;
52922;SDS011;38796;42.702;23.306;2023-04-25T03:46:46;0.30;;;0.30;;
52922;SDS011;38796;42.702;23.306;2023-04-25T03:48:45;1.30;;;1.20;;
52922;SDS011;38796;42.702;23.306;2023-04-25T03:50:49;1.80;;;1.70;;
52922;SDS011;38796;42.702;23.306;2023-04-25T03:52:47;1.63;;;1.45;;
52922;SDS011;38796;42.702;23.306;2023-04-25T03:54:45;3.72;;;3.42;;
52922;SDS011;38796;42.702;23.306;2023-04-25T03:56:47;2.17;;;1.58;;
52922;SDS011;38796;42.702;23.306;2023-04-25T03:58:48;2.67;;;0.82;;
52922;SDS011;38796;42.702;23.306;2023-04-25T04:00:49;2.33;;;1.70;;
52922;SDS011;38796;42.702;23.306;2023-04-25T04:02:49;8.52;;;1.25;;
52922;SDS011;38796;42.702;23.306;2023-04-25T04:04:47;0.90;;;0.90;;
52922;SDS011;38796;42.702;23.306;2023-04-25T04:06:46;0.60;;;0.60;;
52922;SDS011;38796;42.702;23.306;2023-04-25T04:08:50;1.73;;;0.73;;
52922;SDS011;38796;42.702;23.306;2023-04-25T04:10:48;1.77;;;1.30;;
52922;SDS011;38796;42.702;23.306;2023-04-25T04:12:46;1.17;;;0.45;;
52922;SDS011;38796;42.702;23.306;2023-04-25T04:14:44;0.70;;;0.70;;
52922;SDS011;38796;42.702;23.306;2023-04-25T04:16:42;1.15;;;0.57;;
52922;SDS011;38796;42.702;23.306;2023-04-25T04:18:41;0.68;;;0.13;;
52922;SDS011;38796;42.702;23.306;2023-04-25T04:20:40;2.80;;;0.40;;
52922;SDS011;38796;42.702;23.306;2023-04-25T04:22:38;1.25;;;0.52;;
52922;SDS011;38796;42.702;23.306;2023-04-25T04:24:39;0.63;;;0.30;;
52922;SDS011;38796;42.702;23.306;2023-04-25T04:26:42;1.10;;;0.30;;
52922;SDS011;38796;42.702;23.306;2023-04-25T04:28:58;0.28;;;0.20;;
52922;SDS011;38796;42.702;23.306;2023-04-25T04:31:15;0.35;;;0.35;;
52922;SDS011;38796;42.702;23.306;2023-04-25T04:33:15;0.98;;;0.55;;
52922;SDS011;38796;42.702;23.306;2023-04-25T04:35:20;0.98;;;0.40;;
52922;SDS011;38796;42.702;23.306;2023-04-25T04:37:18;1.88;;;0.38;;
52922;SDS011;38796;42.702;23.306;2023-04-25T04:39:16;0.70;;;0.55;;
52922;SDS011;38796;42.702;23.306;2023-04-25T04:41:37;1.90;;;0.47;;
52922;SDS011;38796;42.702;23.306;2023-04-25T04:43:43;0.70;;;0.55;;
52922;SDS011;38796;42.702;23.306;2023-04-25T04:46:02;0.98;;;0.30;;
52922;SDS011;38796;42.702;23.306;2023-04-25T04:48:19;1.63;;;0.82;;
52922;SDS011;38796;42.702;23.306;2023-04-25T04:50:30;0.90;;;0.50;;
52922;SDS011;38796;42.702;23.306;2023-04-25T04:52:38;0.93;;;0.30;;
52922;SDS011;38796;42.702;23.306;2023-04-25T04:55:06;2.03;;;0.82;;
52922;SDS011;38796;42.702;23.306;2023-04-25T04:57:34;1.30;;;0.68;;
52922;SDS011;38796;42.702;23.306;2023-04-25T04:59:48;0.63;;;0.40;;
52922;SDS011;38796;42.702;23.306;2023-04-25T05:02:25;1.80;;;0.90;;
52922;SDS011;38796;42.702;23.306;2023-04-25T05:04:40;0.82;;;0.60;;
52922;SDS011;38796;42.702;23.306;2023-04-25T05:06:56;1.08;;;0.95;;
52922;SDS011;38796;42.702;23.306;2023-04-25T05:09:32;2.33;;;1.55;;
52922;SDS011;38796;42.702;23.306;2023-04-25T05:11:38;2.03;;;1.33;;
52922;SDS011;38796;42.702;23.306;2023-04-25T05:14:07;1.88;;;1.35;;
52922;SDS011;38796;42.702;23.306;2023-04-25T05:16:25;1.05;;;0.90;;
52922;SDS011;38796;42.702;23.306;2023-04-25T05:18:43;1.70;;;0.88;;
52922;SDS011;38796;42.702;23.306;2023-04-25T05:20:59;1.65;;;1.40;;
52922;SDS011;38796;42.702;23.306;2023-04-25T05:23:11;1.27;;;1.17;;
52922;SDS011;38796;42.702;23.306;2023-04-25T05:25:23;1.35;;;0.98;;
52922;SDS011;38796;42.702;23.306;2023-04-25T05:27:59;3.25;;;1.17;;
52922;SDS011;38796;42.702;23.306;2023-04-25T05:30:09;2.13;;;1.63;;
52922;SDS011;38796;42.702;23.306;2023-04-25T05:32:24;2.00;;;0.85;;
52922;SDS011;38796;42.702;23.306;2023-04-25T05:34:22;1.27;;;1.17;;
52922;SDS011;38796;42.702;23.306;2023-04-25T05:36:26;3.50;;;1.40;;
52922;SDS011;38796;42.702;23.306;2023-04-25T05:38:26;2.13;;;0.90;;
52922;SDS011;38796;42.702;23.306;2023-04-25T05:40:44;1.67;;;1.50;;
52922;SDS011;38796;42.702;23.306;2023-04-25T05:43:02;1.63;;;0.70;;
52922;SDS011;38796;42.702;23.306;2023-04-25T05:45:18;2.85;;;2.00;;
52922;SDS011;38796;42.702;23.306;2023-04-25T05:47:24;14.70;;;7.05;;
52922;SDS011;38796;42.702;23.306;2023-04-25T05:49:32;4.00;;;1.42;;
52922;SDS011;38796;42.702;23.306;2023-04-25T05:51:33;16.13;;;8.05;;
52922;SDS011;38796;42.702;23.306;2023-04-25T05:54:02;15.27;;;7.45;;
52922;SDS011;38796;42.702;23.306;2023-04-25T05:56:02;3.92;;;3.08;;
52922;SDS011;38796;42.702;23.306;2023-04-25T05:58:00;3.13;;;2.58;;
52922;SDS011;38796;42.702;23.306;2023-04-25T05:59:58;5.78;;;2.85;;
52922;SDS011;38796;42.702;23.306;2023-04-25T06:02:08;2.80;;;1.55;;
52922;SDS011;38796;42.702;23.306;2023-04-25T06:04:07;0.93;;;0.82;;
52922;SDS011;38796;42.702;23.306;2023-04-25T06:06:06;1.40;;;1.17;;
52922;SDS011;38796;42.702;23.306;2023-04-25T06:08:04;1.42;;;1.23;;
52922;SDS011;38796;42.702;23.306;2023-04-25T06:10:08;3.05;;;1.05;;
52922;SDS011;38796;42.702;23.306;2023-04-25T06:12:07;15.82;;;1.13;;
52922;SDS011;38796;42.702;23.306;2023-04-25T06:14:05;1.42;;;0.68;;
52922;SDS011;38796;42.702;23.306;2023-04-25T06:16:06;2.50;;;0.40;;
52922;SDS011;38796;42.702;23.306;2023-04-25T06:18:04;1.77;;;0.73;;
52922;SDS011;38796;42.702;23.306;2023-04-25T06:20:03;0.95;;;0.60;;
52922;SDS011;38796;42.702;23.306;2023-04-25T06:22:02;1.33;;;1.23;;
52922;SDS011;38796;42.702;23.306;2023-04-25T06:24:02;1.73;;;0.93;;
52922;SDS011;38796;42.702;23.306;2023-04-25T06:26:01;3.38;;;1.15;;
52922;SDS011;38796;42.702;23.306;2023-04-25T06:28:02;4.75;;;2.55;;
52922;SDS011;38796;42.702;23.306;2023-04-25T06:30:00;2.38;;;0.88;;
52922;SDS011;38796;42.702;23.306;2023-04-25T06:32:01;4.22;;;3.03;;
52922;SDS011;38796;42.702;23.306;2023-04-25T06:33:59;1.15;;;0.90;;
52922;SDS011;38796;42.702;23.306;2023-04-25T06:35:58;1.05;;;0.82;;
52922;SDS011;38796;42.702;23.306;2023-04-25T06:37:57;4.68;;;1.10;;
52922;SDS011;38796;42.702;23.306;2023-04-25T06:39:55;2.20;;;0.80;;
52922;SDS011;38796;42.702;23.306;2023-04-25T06:41:54;0.70;;;0.53;;
52922;SDS011;38796;42.702;23.306;2023-04-25T06:44:25;0.63;;;0.33;;
52922;SDS011;38796;42.702;23.306;2023-04-25T06:46:25;0.90;;;0.53;;
52922;SDS011;38796;42.702;23.306;2023-04-25T06:48:25;0.53;;;0.53;;
52922;SDS011;38796;42.702;23.306;2023-04-25T06:50:23;47.53;;;17.50;;
52922;SDS011;38796;42.702;23.306;2023-04-25T06:52:21;51.90;;;19.00;;
52922;SDS011;38796;42.702;23.306;2023-04-25T06:54:21;13.37;;;7.17;;
52922;SDS011;38796;42.702;23.306;2023-04-25T06:56:29;9.20;;;3.90;;
52922;SDS011;38796;42.702;23.306;2023-04-25T06:58:46;5.40;;;1.40;;
52922;SDS011;38796;42.702;23.306;2023-04-25T07:01:01;1.60;;;1.07;;
52922;SDS011;38796;42.702;23.306;2023-04-25T07:03:00;0.80;;;0.80;;
52922;SDS011;38796;42.702;23.306;2023-04-25T07:04:59;0.70;;;0.60;;
52922;SDS011;38796;42.702;23.306;2023-04-25T07:06:59;4.47;;;2.07;;
52922;SDS011;38796;42.702;23.306;2023-04-25T07:09:09;4.53;;;1.73;;
52922;SDS011;38796;42.702;23.306;2023-04-25T07:11:08;1.10;;;0.53;;
52922;SDS011;38796;42.702;23.306;2023-04-25T07:13:06;3.27;;;2.17;;
52922;SDS011;38796;42.702;23.306;2023-04-25T07:15:06;3.50;;;1.15;;
52922;SDS011;38796;42.702;23.306;2023-04-25T07:17:13;12.88;;;6.60;;
52922;SDS011;38796;42.702;23.306;2023-04-25T07:19:14;19.65;;;7.72;;
52922;SDS011;38796;42.702;23.306;2023-04-25T07:21:12;8.20;;;4.13;;
52922;SDS011;38796;42.702;23.306;2023-04-25T07:23:12;1.50;;;0.93;;
52922;SDS011;38796;42.702;23.306;2023-04-25T07:25:13;9.52;;;3.97;;
52922;SDS011;38796;42.702;23.306;2023-04-25T07:27:11;1.63;;;0.50;;
52922;SDS011;38796;42.702;23.306;2023-04-25T07:29:19;4.18;;;1.75;;
52922;SDS011;38796;42.702;23.306;2023-04-25T07:31:19;1.45;;;1.35;;
52922;SDS011;38796;42.702;23.306;2023-04-25T07:33:17;2.05;;;0.73;;
52922;SDS011;38796;42.702;23.306;2023-04-25T07:35:17;4.53;;;1.77;;
52922;SDS011;38796;42.702;23.306;2023-04-25T07:37:16;3.27;;;0.87;;
52922;SDS011;38796;42.702;23.306;2023-04-25T07:39:28;1.20;;;0.30;;
52922;SDS011;38796;42.702;23.306;2023-04-25T07:41:26;0.97;;;0.60;;
52922;SDS011;38796;42.702;23.306;2023-04-25T07:43:24;2.33;;;1.07;;
52922;SDS011;38796;42.702;23.306;2023-04-25T07:45:27;0.55;;;0.45;;
52922;SDS011;38796;42.702;23.306;2023-04-25T07:47:28;0.30;;;0.23;;
52922;SDS011;38796;42.702;23.306;2023-04-25T07:49:26;1.03;;;0.53;;
52922;SDS011;38796;42.702;23.306;2023-04-25T07:51:24;3.70;;;1.17;;
52922;SDS011;38796;42.702;23.306;2023-04-25T07:53:24;3.93;;;0.87;;
52922;SDS011;38796;42.702;23.306;2023-04-25T07:55:27;1.03;;;0.60;;
52922;SDS011;38796;42.702;23.306;2023-04-25T07:57:34;4.80;;;0.60;;
52922;SDS011;38796;42.702;23.306;2023-04-25T07:59:32;2.00;;;0.90;;
52922;SDS011;38796;42.702;23.306;2023-04-25T08:01:33;1.93;;;0.60;;
52922;SDS011;38796;42.702;23.306;2023-04-25T08:03:35;1.07;;;0.53;;
52922;SDS011;38796;42.702;23.306;2023-04-25T08:05:38;1.73;;;0.60;;
52922;SDS011;38796;42.702;23.306;2023-04-25T08:07:37;2.80;;;1.13;;
52922;SDS011;38796;42.702;23.306;2023-04-25T08:09:35;5.70;;;2.90;;
52922;SDS011;38796;42.702;23.306;2023-04-25T08:11:37;0.70;;;0.30;;
52922;SDS011;38796;42.702;23.306;2023-04-25T08:13:37;3.73;;;2.13;;
52922;SDS011;38796;42.702;23.306;2023-04-25T08:15:36;2.23;;;2.07;;
52922;SDS011;38796;42.702;23.306;2023-04-25T08:17:34;1.37;;;0.80;;
52922;SDS011;38796;42.702;23.306;2023-04-25T08:19:33;1.83;;;0.80;;
52922;SDS011;38796;42.702;23.306;2023-04-25T08:21:31;1.73;;;0.60;;
52922;SDS011;38796;42.702;23.306;2023-04-25T08:23:33;1.87;;;1.00;;
52922;SDS011;38796;42.702;23.306;2023-04-25T08:25:34;0.70;;;0.37;;
52922;SDS011;38796;42.702;23.306;2023-04-25T08:27:33;1.43;;;1.00;;
52922;SDS011;38796;42.702;23.306;2023-04-25T08:29:31;1.37;;;0.53;;
52922;SDS011;38796;42.702;23.306;2023-04-25T08:31:29;6.67;;;1.37;;
52922;SDS011;38796;42.702;23.306;2023-04-25T08:33:31;1.50;;;0.93;;
52922;SDS011;38796;42.702;23.306;2023-04-25T08:35:43;2.83;;;0.57;;
52922;SDS011;38796;42.702;23.306;2023-04-25T08:37:43;3.10;;;0.40;;
52922;SDS011;38796;42.702;23.306;2023-04-25T08:39:43;2.13;;;1.10;;
52922;SDS011;38796;42.702;23.306;2023-04-25T08:42:00;5.27;;;1.07;;
52922;SDS011;38796;42.702;23.306;2023-04-25T08:44:01;5.70;;;1.13;;
52922;SDS011;38796;42.702;23.306;2023-04-25T08:46:01;4.53;;;1.20;;
52922;SDS011;38796;42.702;23.306;2023-04-25T08:48:10;0.60;;;0.30;;
52922;SDS011;38796;42.702;23.306;2023-04-25T08:50:09;2.40;;;0.40;;
52922;SDS011;38796;42.702;23.306;2023-04-25T08:52:09;0.60;;;0.27;;
52922;SDS011;38796;42.702;23.306;2023-04-25T08:54:09;0.50;;;0.00;;
52922;SDS011;38796;42.702;23.306;2023-04-25T08:56:11;0.40;;;0.10;;
52922;SDS011;38796;42.702;23.306;2023-04-25T08:58:10;0.20;;;0.10;;
52922;SDS011;38796;42.702;23.306;2023-04-25T09:00:09;0.83;;;0.30;;
52922;SDS011;38796;42.702;23.306;2023-04-25T09:02:11;0.10;;;0.00;;
52922;SDS011;38796;42.702;23.306;2023-04-25T09:04:11;0.67;;;0.10;;
52922;SDS011;38796;42.702;23.306;2023-04-25T09:06:10;0.70;;;0.10;;
52922;SDS011;38796;42.702;23.306;2023-04-25T09:08:10;2.00;;;0.40;;
52922;SDS011;38796;42.702;23.306;2023-04-25T09:10:08;1.33;;;0.50;;
52922;SDS011;38796;42.702;23.306;2023-04-25T09:12:07;0.40;;;0.10;;
52922;SDS011;38796;42.702;23.306;2023-04-25T09:14:10;0.50;;;0.47;;
52922;SDS011;38796;42.702;23.306;2023-04-25T09:16:31;0.97;;;0.33;;
52922;SDS011;38796;42.702;23.306;2023-04-25T09:18:54;0.67;;;0.43;;
52922;SDS011;38796;42.702;23.306;2023-04-25T09:20:53;1.87;;;0.50;;
52922;SDS011;38796;42.702;23.306;2023-04-25T09:23:01;0.80;;;0.60;;
52922;SDS011;38796;42.702;23.306;2023-04-25T09:25:03;0.57;;;0.30;;
52922;SDS011;38796;42.702;23.306;2023-04-25T09:27:04;0.80;;;0.43;;
52922;SDS011;38796;42.702;23.306;2023-04-25T09:29:04;0.53;;;0.37;;
52922;SDS011;38796;42.702;23.306;2023-04-25T09:31:05;0.83;;;0.67;;
52922;SDS011;38796;42.702;23.306;2023-04-25T09:33:09;5.20;;;0.50;;
52922;SDS011;38796;42.702;23.306;2023-04-25T09:35:15;2.05;;;0.20;;
52922;SDS011;38796;42.702;23.306;2023-04-25T09:37:22;2.30;;;0.43;;
52922;SDS011;38796;42.702;23.306;2023-04-25T09:39:53;2.63;;;0.67;;
52922;SDS011;38796;42.702;23.306;2023-04-25T09:41:54;0.57;;;0.30;;
52922;SDS011;38796;42.702;23.306;2023-04-25T09:43:52;0.80;;;0.30;;
52922;SDS011;38796;42.702;23.306;2023-04-25T09:45:58;0.50;;;0.10;;
52922;SDS011;38796;42.702;23.306;2023-04-25T09:48:02;1.35;;;0.17;;
52922;SDS011;38796;42.702;23.306;2023-04-25T09:50:01;0.50;;;0.00;;
52922;SDS011;38796;42.702;23.306;2023-04-25T09:51:59;4.27;;;0.20;;
52922;SDS011;38796;42.702;23.306;2023-04-25T09:54:16;0.07;;;0.00;;
52922;SDS011;38796;42.702;23.306;2023-04-25T09:56:17;1.17;;;0.10;;
52922;SDS011;38796;42.702;23.306;2023-04-25T09:58:19;1.00;;;0.10;;
52922;SDS011;38796;42.702;23.306;2023-04-25T10:00:18;0.10;;;0.00;;
52922;SDS011;38796;42.702;23.306;2023-04-25T10:02:18;0.10;;;0.00;;
52922;SDS011;38796;42.702;23.306;2023-04-25T10:04:20;2.23;;;0.20;;
52922;SDS011;38796;42.702;23.306;2023-04-25T10:06:47;0.30;;;0.00;;
52922;SDS011;38796;42.702;23.306;2023-04-25T10:08:50;0.73;;;0.10;;
52922;SDS011;38796;42.702;23.306;2023-04-25T10:10:51;0.00;;;0.00;;
52922;SDS011;38796;42.702;23.306;2023-04-25T10:12:50;0.13;;;0.00;;
52922;SDS011;38796;42.702;23.306;2023-04-25T10:14:51;1.90;;;0.00;;
52922;SDS011;38796;42.702;23.306;2023-04-25T10:16:50;0.10;;;0.00;;
52922;SDS011;38796;42.702;23.306;2023-04-25T10:18:51;0.40;;;0.10;;
52922;SDS011;38796;42.702;23.306;2023-04-25T10:20:49;5.03;;;1.63;;
52922;SDS011;38796;42.702;23.306;2023-04-25T10:22:49;0.80;;;0.30;;
52922;SDS011;38796;42.702;23.306;2023-04-25T10:24:56;4.80;;;0.43;;
52922;SDS011;38796;42.702;23.306;2023-04-25T10:26:54;0.63;;;0.00;;
52922;SDS011;38796;42.702;23.306;2023-04-25T10:28:56;0.07;;;0.00;;
52922;SDS011;38796;42.702;23.306;2023-04-25T10:30:58;0.00;;;0.00;;
52922;SDS011;38796;42.702;23.306;2023-04-25T10:32:56;5.90;;;2.83;;
52922;SDS011;38796;42.702;23.306;2023-04-25T10:34:56;12.13;;;4.77;;
52922;SDS011;38796;42.702;23.306;2023-04-25T10:36:54;3.10;;;0.63;;
52922;SDS011;38796;42.702;23.306;2023-04-25T10:38:52;2.63;;;0.40;;
52922;SDS011;38796;42.702;23.306;2023-04-25T10:41:03;0.20;;;0.10;;
52922;SDS011;38796;42.702;23.306;2023-04-25T10:45:21;0.27;;;0.07;;
52922;SDS011;38796;42.702;23.306;2023-04-25T10:47:26;0.00;;;0.00;;
52922;SDS011;38796;42.702;23.306;2023-04-25T10:49:32;0.20;;;0.03;;
52922;SDS011;38796;42.702;23.306;2023-04-25T10:51:33;0.83;;;0.00;;
52922;SDS011;38796;42.702;23.306;2023-04-25T10:53:56;0.10;;;0.00;;
52922;SDS011;38796;42.702;23.306;2023-04-25T10:55:55;0.10;;;0.00;;
52922;SDS011;38796;42.702;23.306;2023-04-25T10:57:53;0.10;;;0.00;;
52922;SDS011;38796;42.702;23.306;2023-04-25T10:59:51;1.00;;;0.03;;
52922;SDS011;38796;42.702;23.306;2023-04-25T11:01:51;4.83;;;1.33;;
52922;SDS011;38796;42.702;23.306;2023-04-25T11:03:56;4.70;;;1.47;;
52922;SDS011;38796;42.702;23.306;2023-04-25T11:05:55;0.00;;;0.00;;
52922;SDS011;38796;42.702;23.306;2023-04-25T11:07:54;6.30;;;2.40;;
52922;SDS011;38796;42.702;23.306;2023-04-25T11:09:56;0.33;;;0.07;;
52922;SDS011;38796;42.702;23.306;2023-04-25T11:11:55;0.07;;;0.00;;
52922;SDS011;38796;42.702;23.306;2023-04-25T11:13:53;1.13;;;0.47;;
52922;SDS011;38796;42.702;23.306;2023-04-25T11:15:51;0.63;;;0.20;;
52922;SDS011;38796;42.702;23.306;2023-04-25T11:18:08;0.10;;;0.00;;
52922;SDS011;38796;42.702;23.306;2023-04-25T11:20:09;1.13;;;0.00;;
52922;SDS011;38796;42.702;23.306;2023-04-25T11:22:08;0.10;;;0.00;;
52922;SDS011;38796;42.702;23.306;2023-04-25T11:24:07;1.00;;;0.00;;
52922;SDS011;38796;42.702;23.306;2023-04-25T11:26:06;0.10;;;0.10;;
52922;SDS011;38796;42.702;23.306;2023-04-25T11:28:04;0.03;;;0.00;;
52922;SDS011;38796;42.702;23.306;2023-04-25T11:30:11;0.00;;;0.00;;
52922;SDS011;38796;42.702;23.306;2023-04-25T11:32:10;0.10;;;0.00;;
52922;SDS011;38796;42.702;23.306;2023-04-25T11:34:08;0.53;;;0.00;;
52922;SDS011;38796;42.702;23.306;2023-04-25T11:36:07;0.47;;;0.00;;
52922;SDS011;38796;42.702;23.306;2023-04-25T11:38:05;0.30;;;0.00;;
52922;SDS011;38796;42.702;23.306;2023-04-25T11:40:04;0.30;;;0.10;;
52922;SDS011;38796;42.702;23.306;2023-04-25T11:42:03;0.73;;;0.00;;
52922;SDS011;38796;42.702;23.306;2023-04-25T11:44:09;0.20;;;0.00;;
52922;SDS011;38796;42.702;23.306;2023-04-25T11:46:07;0.20;;;0.00;;
52922;SDS011;38796;42.702;23.306;2023-04-25T11:48:05;0.00;;;0.00;;
52922;SDS011;38796;42.702;23.306;2023-04-25T11:50:04;0.57;;;0.00;;
52922;SDS011;38796;42.702;23.306;2023-04-25T11:52:05;0.10;;;0.00;;
52922;SDS011;38796;42.702;23.306;2023-04-25T11:54:04;0.00;;;0.00;;
52922;SDS011;38796;42.702;23.306;2023-04-25T11:56:02;0.00;;;0.00;;
52922;SDS011;38796;42.702;23.306;2023-04-25T12:00:06;0.07;;;0.00;;
52922;SDS011;38796;42.702;23.306;2023-04-25T12:02:07;0.27;;;0.00;;
52922;SDS011;38796;42.702;23.306;2023-04-25T12:04:12;1.40;;;0.10;;
52922;SDS011;38796;42.702;23.306;2023-04-25T12:06:11;0.00;;;0.00;;
52922;SDS011;38796;42.702;23.306;2023-04-25T12:08:16;0.00;;;0.00;;
52922;SDS011;38796;42.702;23.306;2023-04-25T12:10:15;0.23;;;0.00;;